Luger, Wisconsin
Current Conditions -  °F | °C
As of 7:55 AM on Monday 20 Oct 2014 (Local Time) from KPBH Reporting Station
Overcast Overcast  
Wind Chill: 42°   Ceiling: 3400
Heat Index: 42°   Visibility: 10mi
Dew Point: 40°   Wind: 3mph
Humidity: 93%   Direction: 280°W
Pressure: 29.87"   Gusts: NA
Location:  45.7439°N, 90.2959°W
Report Text: KPBH 201255Z AUTO 28003KT 10SM OVC034 06/05 A2987 RMK AO2 T00550045
Loading
Personal Weather Stations






























Interactive Weather Map
Tropical Storm Tracking
New forecast layout! Learn more

10-Day Weather Forecast

Advertisements
Track Severe Weather on mobile